Time;durP1;ratioP1;P1;durP2;ratioP2;P2;SDS_P1;SDS_P2;PMS_P1;PMS_P2;Temp;Humidity;BMP_temperature;BMP_pressure;BME280_temperature;BME280_humidity;BME280_pressure;Samples;Min_cycle;Max_cycle;Signal;HPM_P1;HPM_P2
2022/08/01 00:01:51;;;;;;;20.25;9.23;;;17.70;74.90;;;;;;4101701;28;20038;-83
2022/08/01 00:04:10;;;;;;;22.25;9.93;;;17.70;74.90;;;;;;4113707;28;20093;-81
2022/08/01 00:06:30;;;;;;;21.25;9.18;;;17.70;74.90;;;;;;4109841;28;20075;-83
2022/08/01 00:08:50;;;;;;;19.83;10.35;;;17.70;75.00;;;;;;4111127;28;20093;-83
2022/08/01 00:11:09;;;;;;;43.33;10.55;;;17.70;75.00;;;;;;4113404;28;20107;-83
2022/08/01 00:13:28;;;;;;;22.60;10.75;;;17.60;75.00;;;;;;4109141;28;21291;-83
2022/08/01 00:15:47;;;;;;;25.65;10.95;;;17.60;75.00;;;;;;4111618;28;20582;-82
2022/08/01 00:18:06;;;;;;;25.13;11.20;;;17.60;75.20;;;;;;4109523;28;20045;-82
2022/08/01 00:20:26;;;;;;;32.40;11.85;;;17.60;75.40;;;;;;4113058;28;20114;-83
2022/08/01 00:22:45;;;;;;;32.75;11.68;;;17.60;75.50;;;;;;4091694;28;20057;-82
2022/08/01 00:25:05;;;;;;;36.70;11.25;;;17.60;75.40;;;;;;4113590;28;20053;-81
2022/08/01 00:27:25;;;;;;;35.08;11.50;;;17.60;75.70;;;;;;4113034;28;20118;-81
2022/08/01 00:29:44;;;;;;;26.00;12.55;;;17.60;75.60;;;;;;4099600;28;20033;-83
2022/08/01 00:32:04;;;;;;;31.20;10.77;;;17.60;75.50;;;;;;4114069;28;20042;-83
2022/08/01 00:34:23;;;;;;;33.78;11.68;;;17.60;75.60;;;;;;4110529;28;21161;-83
2022/08/01 00:36:43;;;;;;;29.23;11.10;;;17.60;75.80;;;;;;4113341;28;20529;-82
2022/08/01 00:39:02;;;;;;;21.85;10.95;;;17.60;75.80;;;;;;4114976;28;20038;-81
2022/08/01 00:41:21;;;;;;;24.67;11.90;;;17.60;76.00;;;;;;4111325;28;20046;-83
2022/08/01 00:43:41;;;;;;;27.40;12.07;;;17.60;75.90;;;;;;4111755;28;20053;-82
2022/08/01 00:46:00;;;;;;;28.17;11.30;;;17.50;76.00;;;;;;4113671;28;20065;-83
2022/08/01 00:48:19;;;;;;;23.60;11.70;;;17.60;76.10;;;;;;4095237;28;20046;-83
2022/08/01 00:50:38;;;;;;;17.77;10.30;;;17.50;76.10;;;;;;4110645;28;20042;-83
2022/08/01 00:52:59;;;;;;;25.90;11.52;;;17.60;76.30;;;;;;4111216;28;20061;-83
2022/08/01 00:55:19;;;;;;;24.13;11.02;;;17.60;76.30;;;;;;4107300;28;20072;-83
2022/08/01 00:57:39;;;;;;;24.38;12.35;;;17.60;76.40;;;;;;4107624;28;20069;-83
2022/08/01 00:59:58;;;;;;;29.52;11.27;;;17.50;76.40;;;;;;4109733;28;20673;-81
2022/08/01 01:02:18;;;;;;;27.67;12.07;;;17.60;76.40;;;;;;4117199;28;20045;-83
2022/08/01 01:04:37;;;;;;;26.88;12.60;;;17.50;76.30;;;;;;4101760;28;20046;-82
2022/08/01 01:07:06;;;;;;;24.70;12.05;;;17.50;76.40;;;;;;4113323;28;20050;-83
2022/08/01 01:09:38;;;;;;;32.08;10.98;;;17.50;76.50;;;;;;4113822;28;20063;-83
2022/08/01 01:11:58;;;;;;;30.45;11.40;;;17.50;76.70;;;;;;4118379;28;20090;-83
2022/08/01 01:14:46;;;;;;;19.55;10.65;;;17.50;76.50;;;;;;4117123;28;20441;-83
2022/08/01 01:17:08;;;;;;;27.15;10.65;;;17.50;77.10;;;;;;4115201;28;20118;-83
2022/08/01 01:19:33;;;;;;;21.70;9.20;;;17.50;76.60;;;;;;4114563;28;20047;-82
2022/08/01 01:22:14;;;;;;;27.83;9.88;;;17.50;76.60;;;;;;4113409;28;20049;-83
2022/08/01 01:24:27;;;;;;;27.27;9.93;;;17.50;76.80;;;;;;4114642;28;20414;-83
2022/08/01 01:26:59;;;;;;;24.00;9.48;;;17.50;76.60;;;;;;4101879;28;20047;-83
2022/08/01 01:29:23;;;;;;;27.48;9.57;;;17.50;77.00;;;;;;4132226;28;20410;-82
2022/08/01 01:31:25;;;;;;;23.98;9.20;;;17.50;76.90;;;;;;4099566;28;20042;-83
2022/08/01 01:33:28;;;;;;;17.77;9.05;;;17.50;76.70;;;;;;4117311;28;20066;-82
2022/08/01 01:35:36;;;;;;;34.35;10.23;;;17.50;76.70;;;;;;4102838;28;20562;-85
2022/08/01 01:37:40;;;;;;;24.08;9.65;;;17.40;76.80;;;;;;4130625;28;20088;-83
2022/08/01 01:39:42;;;;;;;21.77;9.75;;;17.40;76.80;;;;;;4117629;28;20039;-83
2022/08/01 01:41:45;;;;;;;27.90;9.43;;;17.40;76.80;;;;;;4113967;28;20039;-83
2022/08/01 01:43:47;;;;;;;16.65;9.35;;;17.40;76.90;;;;;;4101053;28;20066;-83
2022/08/01 01:45:49;;;;;;;17.23;9.20;;;17.40;77.00;;;;;;4115047;28;20402;-83
2022/08/01 01:47:52;;;;;;;19.75;8.85;;;17.40;77.10;;;;;;4103591;28;20051;-84
2022/08/01 01:49:55;;;;;;;22.67;9.68;;;17.40;77.20;;;;;;4102143;28;20023;-82
2022/08/01 01:51:58;;;;;;;21.80;9.32;;;17.40;77.30;;;;;;4113923;28;20699;-82
2022/08/01 01:54:00;;;;;;;21.17;10.05;;;17.40;77.40;;;;;;4085849;28;20031;-83
2022/08/01 01:56:03;;;;;;;24.05;9.60;;;17.40;77.40;;;;;;4112432;28;20031;-82
2022/08/01 01:58:04;;;;;;;18.52;10.32;;;17.40;77.50;;;;;;4116480;28;20029;-82
2022/08/01 02:00:07;;;;;;;29.38;9.60;;;17.40;77.50;;;;;;4116316;28;20022;-82
2022/08/01 02:02:10;;;;;;;24.70;9.18;;;17.40;77.60;;;;;;4115484;28;20086;-83
2022/08/01 02:04:11;;;;;;;30.95;10.75;;;17.40;77.60;;;;;;4114732;28;20034;-83
2022/08/01 02:06:16;;;;;;;30.65;10.13;;;17.40;77.60;;;;;;4131246;28;20132;-82
2022/08/01 02:08:18;;;;;;;24.42;10.20;;;17.30;77.70;;;;;;4113245;28;20110;-83
2022/08/01 02:10:26;;;;;;;24.00;10.48;;;17.40;77.80;;;;;;4113287;28;20391;-82
2022/08/01 02:12:49;;;;;;;23.42;10.40;;;17.40;77.90;;;;;;4112390;28;20062;-81
2022/08/01 02:15:12;;;;;;;24.02;9.85;;;17.40;77.90;;;;;;4114591;28;20035;-82
2022/08/01 02:17:39;;;;;;;22.58;9.75;;;17.40;77.80;;;;;;4117774;28;20042;-82
2022/08/01 02:20:00;;;;;;;21.08;9.55;;;17.40;77.90;;;;;;4100557;28;20070;-82
2022/08/01 02:22:40;;;;;;;18.23;9.30;;;17.40;77.90;;;;;;4112215;28;20158;-83
2022/08/01 02:25:13;;;;;;;19.95;8.90;;;17.40;78.20;;;;;;4109058;28;20043;-82
2022/08/01 02:27:38;;;;;;;16.67;9.40;;;17.40;77.90;;;;;;4116816;28;20054;-83
2022/08/01 02:30:04;;;;;;;19.38;8.95;;;17.40;77.90;;;;;;4101609;28;20032;-82
2022/08/01 02:32:39;;;;;;;18.90;8.90;;;17.40;78.00;;;;;;4115879;28;20110;-82
2022/08/01 02:35:03;;;;;;;23.08;9.25;;;17.30;78.20;;;;;;4113992;28;20030;-82
2022/08/01 02:37:26;;;;;;;21.98;8.80;;;17.40;78.20;;;;;;4125884;28;20026;-83
2022/08/01 02:39:50;;;;;;;20.20;7.90;;;17.30;78.10;;;;;;4111861;28;20054;-81
2022/08/01 02:42:13;;;;;;;23.05;8.90;;;17.30;78.20;;;;;;4110972;28;20058;-81
2022/08/01 02:44:38;;;;;;;25.20;8.00;;;17.30;78.20;;;;;;4113792;28;20039;-83
2022/08/01 02:47:04;;;;;;;27.85;8.68;;;17.30;78.40;;;;;;4112382;28;20049;-82
2022/08/01 02:49:27;;;;;;;27.45;8.90;;;17.30;78.50;;;;;;4114652;28;20078;-82
2022/08/01 02:51:49;;;;;;;21.65;8.00;;;17.30;78.50;;;;;;4109991;28;20118;-82
2022/08/01 02:54:11;;;;;;;27.77;7.90;;;17.30;78.60;;;;;;4114937;28;20038;-82
2022/08/01 02:56:36;;;;;;;23.20;8.68;;;17.30;78.60;;;;;;4108962;28;20035;-81
2022/08/01 02:58:57;;;;;;;29.10;8.57;;;17.30;78.70;;;;;;4102808;28;20235;-82
2022/08/01 03:01:19;;;;;;;24.45;8.02;;;17.30;78.70;;;;;;4111721;28;20018;-82
2022/08/01 03:03:41;;;;;;;22.60;8.20;;;17.30;78.80;;;;;;4109686;28;20042;-82
2022/08/01 03:06:02;;;;;;;23.77;8.20;;;17.30;78.90;;;;;;4099723;28;20031;-82
2022/08/01 03:08:24;;;;;;;19.73;7.88;;;17.30;79.00;;;;;;4114720;28;20035;-82
2022/08/01 03:10:46;;;;;;;24.88;7.80;;;17.30;79.00;;;;;;4112503;28;20050;-82
2022/08/01 03:13:09;;;;;;;22.33;8.25;;;17.30;79.10;;;;;;4111536;28;20031;-82
2022/08/01 03:15:33;;;;;;;19.30;8.20;;;17.20;79.20;;;;;;4114272;28;20033;-80
2022/08/01 03:17:55;;;;;;;17.88;7.68;;;17.20;79.20;;;;;;4100715;28;20042;-82
2022/08/01 03:20:18;;;;;;;19.20;9.02;;;17.20;79.20;;;;;;4114959;28;20047;-82
2022/08/01 03:22:40;;;;;;;17.70;8.10;;;17.20;79.40;;;;;;4099140;28;20034;-82
2022/08/01 03:25:03;;;;;;;26.77;8.45;;;17.20;79.50;;;;;;4099851;28;20029;-84
2022/08/01 03:27:25;;;;;;;24.08;8.35;;;17.20;79.50;;;;;;4113181;28;20054;-82
2022/08/01 03:29:47;;;;;;;22.58;8.65;;;17.20;79.60;;;;;;4098373;28;20051;-82
2022/08/01 03:32:11;;;;;;;25.23;8.30;;;17.20;79.60;;;;;;4112456;28;20027;-83
2022/08/01 03:34:32;;;;;;;;;;;17.20;79.80;;;;;;4112132;28;20026;-82
2022/08/01 03:37:10;;;;;;;16.58;6.93;;;17.20;80.30;;;;;;4110658;28;19925;-83
2022/08/01 03:39:41;;;;;;;14.45;6.88;;;17.20;79.80;;;;;;4098316;28;20511;-83
2022/08/01 03:42:12;;;;;;;18.23;7.22;;;17.20;79.80;;;;;;4109040;28;20042;-83
2022/08/01 03:44:35;;;;;;;17.08;5.97;;;17.10;79.90;;;;;;4115159;28;20033;-84
2022/08/01 03:47:02;;;;;;;23.58;6.50;;;17.10;79.80;;;;;;4113173;28;20093;-84
2022/08/01 03:49:25;;;;;;;14.55;5.65;;;17.10;80.00;;;;;;4115605;28;20046;-83
2022/08/01 03:51:49;;;;;;;13.10;5.10;;;17.10;80.00;;;;;;4124066;28;20155;-82
2022/08/01 03:54:10;;;;;;;21.15;5.00;;;17.10;80.00;;;;;;4113975;28;20316;-83
2022/08/01 03:56:31;;;;;;;13.90;4.93;;;17.10;80.00;;;;;;4110682;28;20034;-84
2022/08/01 03:58:51;;;;;;;17.13;4.32;;;17.10;80.10;;;;;;4117686;28;20046;-84
2022/08/01 04:01:11;;;;;;;10.13;4.05;;;17.10;80.20;;;;;;4111853;28;20055;-84
2022/08/01 04:03:30;;;;;;;10.98;3.33;;;17.10;80.10;;;;;;4100999;28;20053;-84
2022/08/01 04:05:50;;;;;;;8.05;3.10;;;17.10;80.00;;;;;;4123298;28;20040;-82
2022/08/01 04:08:09;;;;;;;11.63;2.70;;;17.10;80.00;;;;;;4101929;28;20059;-83
2022/08/01 04:10:29;;;;;;;7.78;2.70;;;17.10;80.00;;;;;;4095877;28;20070;-84
2022/08/01 04:12:49;;;;;;;7.88;1.98;;;17.10;80.00;;;;;;4115181;28;20037;-83
2022/08/01 04:15:08;;;;;;;3.60;1.92;;;17.00;79.80;;;;;;4114013;28;20109;-84
2022/08/01 04:17:27;;;;;;;6.80;2.40;;;17.00;79.80;;;;;;4113414;28;20501;-82
2022/08/01 04:19:46;;;;;;;7.43;2.30;;;17.00;79.90;;;;;;4112345;28;20081;-85
2022/08/01 04:22:06;;;;;;;3.78;2.22;;;17.00;79.80;;;;;;4099317;28;20030;-83
2022/08/01 04:24:29;;;;;;;10.02;2.40;;;17.00;79.80;;;;;;4115482;28;20100;-84
2022/08/01 04:26:51;;;;;;;6.43;2.50;;;17.00;79.80;;;;;;4124221;28;20041;-86
2022/08/01 04:29:11;;;;;;;9.70;2.30;;;17.00;79.80;;;;;;4115186;28;20234;-85
2022/08/01 04:31:32;;;;;;;9.98;2.17;;;16.90;79.70;;;;;;4112341;28;20054;-83
2022/08/01 04:33:55;;;;;;;6.63;1.95;;;16.90;79.60;;;;;;4110806;28;20069;-84
2022/08/01 04:36:17;;;;;;;18.63;2.20;;;16.90;79.50;;;;;;4104258;28;20075;-84
2022/08/01 04:38:38;;;;;;;13.38;2.42;;;16.90;79.50;;;;;;4103084;28;20058;-84
2022/08/01 04:40:58;;;;;;;14.82;2.83;;;16.80;79.40;;;;;;4115900;28;20041;-84
2022/08/01 04:43:18;;;;;;;12.90;2.50;;;16.80;79.20;;;;;;4100263;28;20059;-84
2022/08/01 04:45:38;;;;;;;6.82;2.08;;;16.80;79.00;;;;;;4115161;28;20050;-83
2022/08/01 04:47:59;;;;;;;13.77;1.45;;;16.70;78.80;;;;;;4121011;28;20037;-84
2022/08/01 04:50:21;;;;;;;9.45;1.92;;;16.70;78.50;;;;;;4117037;28;20034;-85
2022/08/01 04:52:41;;;;;;;13.20;2.00;;;16.70;78.30;;;;;;4116372;28;20058;-84
2022/08/01 04:55:02;;;;;;;16.58;2.42;;;16.60;78.10;;;;;;4116237;28;20061;-84
2022/08/01 04:57:21;;;;;;;12.70;2.25;;;16.50;77.90;;;;;;4104838;28;20107;-84
2022/08/01 04:59:43;;;;;;;9.00;2.70;;;16.50;77.80;;;;;;4116349;28;20040;-86
2022/08/01 05:02:02;;;;;;;13.75;2.83;;;16.40;77.80;;;;;;4103310;28;20139;-84
2022/08/01 05:04:21;;;;;;;18.67;3.00;;;16.40;77.60;;;;;;4115794;28;20089;-86
2022/08/01 05:06:40;;;;;;;13.55;2.80;;;16.30;77.60;;;;;;4110944;28;20074;-86
2022/08/01 05:09:00;;;;;;;16.00;3.25;;;16.30;77.60;;;;;;4112672;28;20058;-85
2022/08/01 05:11:19;;;;;;;16.02;3.00;;;16.20;78.40;;;;;;4111468;28;20045;-84
2022/08/01 05:13:38;;;;;;;10.93;2.05;;;16.10;77.60;;;;;;4111506;28;20034;-85
2022/08/01 05:15:57;;;;;;;12.75;2.25;;;16.10;77.70;;;;;;4115423;28;20066;-83
2022/08/01 05:18:16;;;;;;;11.30;1.88;;;16.10;77.60;;;;;;4116616;28;20037;-84
2022/08/01 05:20:36;;;;;;;7.80;1.75;;;16.00;77.50;;;;;;4113160;28;20046;-85
2022/08/01 05:22:57;;;;;;;9.68;1.95;;;16.00;77.00;;;;;;4106558;28;20101;-84
2022/08/01 05:25:16;;;;;;;11.88;1.67;;;16.00;76.50;;;;;;4105188;28;20162;-84
2022/08/01 05:27:39;;;;;;;12.35;2.42;;;16.00;75.90;;;;;;4114891;28;20094;-83
2022/08/01 05:29:58;;;;;;;11.63;2.13;;;16.00;75.60;;;;;;4118239;28;20076;-86
2022/08/01 05:32:17;;;;;;;20.38;1.80;;;16.00;75.50;;;;;;4114776;28;20037;-85
2022/08/01 05:34:36;;;;;;;12.13;1.92;;;16.00;75.10;;;;;;4111065;28;20074;-84
2022/08/01 05:36:55;;;;;;;7.00;1.95;;;16.00;75.10;;;;;;4114346;28;20203;-85
2022/08/01 05:39:14;;;;;;;10.20;2.40;;;16.00;74.60;;;;;;4102608;28;20515;-84
2022/08/01 05:41:36;;;;;;;10.88;1.98;;;16.00;74.60;;;;;;4114775;28;20062;-84
2022/08/01 05:43:55;;;;;;;20.15;1.90;;;16.00;74.50;;;;;;4130726;28;20064;-84
2022/08/01 05:46:14;;;;;;;13.68;2.25;;;16.00;74.30;;;;;;4115440;28;20059;-84
2022/08/01 05:48:33;;;;;;;14.68;2.72;;;16.00;74.60;;;;;;4116561;28;20049;-84
2022/08/01 05:50:53;;;;;;;16.80;2.83;;;16.00;73.30;;;;;;4114810;28;20045;-84
2022/08/01 05:53:13;;;;;;;23.63;2.90;;;16.00;72.80;;;;;;4114539;28;20418;-86
2022/08/01 05:55:33;;;;;;;19.25;3.28;;;16.00;72.40;;;;;;4115529;28;20054;-84
2022/08/01 05:57:52;;;;;;;20.65;2.72;;;16.00;72.10;;;;;;4114638;28;20113;-85
2022/08/01 06:00:12;;;;;;;17.85;3.10;;;15.90;71.60;;;;;;4113464;28;20170;-85
2022/08/01 06:02:31;;;;;;;18.08;2.78;;;15.90;71.20;;;;;;4106400;28;20402;-85
2022/08/01 06:04:50;;;;;;;15.77;2.95;;;15.90;71.00;;;;;;4102808;28;20049;-85
2022/08/01 06:07:09;;;;;;;19.80;2.58;;;15.80;71.00;;;;;;4098690;28;20046;-85
2022/08/01 06:09:30;;;;;;;18.23;2.95;;;15.80;71.00;;;;;;4111013;28;20042;-84
2022/08/01 06:11:49;;;;;;;20.35;2.53;;;15.80;71.20;;;;;;4113471;28;20133;-84
2022/08/01 06:14:08;;;;;;;20.58;2.88;;;15.80;71.30;;;;;;4109224;28;20030;-83
2022/08/01 06:16:28;;;;;;;19.55;3.00;;;15.80;71.40;;;;;;4116548;28;20049;-84
2022/08/01 06:18:47;;;;;;;17.38;2.50;;;15.70;71.40;;;;;;4105961;28;20043;-85
2022/08/01 06:21:06;;;;;;;14.73;2.53;;;15.80;71.50;;;;;;4102245;28;20056;-85
2022/08/01 06:23:25;;;;;;;16.35;2.90;;;15.80;71.20;;;;;;4116116;28;20034;-84
2022/08/01 06:25:45;;;;;;;24.15;3.08;;;15.80;70.70;;;;;;4115637;28;20066;-85
2022/08/01 06:28:04;;;;;;;15.35;2.90;;;15.70;70.50;;;;;;4115249;28;20066;-85
2022/08/01 06:30:23;;;;;;;16.45;2.60;;;15.70;70.50;;;;;;4116794;28;20134;-85
2022/08/01 06:32:42;;;;;;;19.55;3.05;;;15.70;70.80;;;;;;4116881;28;20034;-84
2022/08/01 06:35:02;;;;;;;17.20;2.28;;;15.70;70.80;;;;;;4103758;28;20038;-84
2022/08/01 06:37:21;;;;;;;18.25;3.00;;;15.70;70.60;;;;;;4113234;28;20034;-86
2022/08/01 06:39:40;;;;;;;14.57;2.42;;;15.70;70.70;;;;;;4116385;28;20495;-85
2022/08/01 06:41:59;;;;;;;22.25;3.13;;;15.80;70.30;;;;;;4114806;28;20033;-85
2022/08/01 06:44:19;;;;;;;21.08;2.90;;;15.80;70.00;;;;;;4109794;28;20049;-85
2022/08/01 06:46:38;;;;;;;16.35;2.45;;;15.80;69.70;;;;;;4109788;28;20592;-85
2022/08/01 06:48:57;;;;;;;17.75;2.60;;;15.80;69.60;;;;;;4107926;28;20067;-85
2022/08/01 06:51:19;;;;;;;18.02;2.40;;;15.80;69.90;;;;;;4115253;28;20081;-84
2022/08/01 06:53:38;;;;;;;15.52;2.92;;;15.80;69.90;;;;;;4105690;28;20063;-85
2022/08/01 06:55:57;;;;;;;23.55;2.53;;;15.90;69.50;;;;;;4103582;28;20099;-85
2022/08/01 06:58:16;;;;;;;18.00;2.92;;;15.90;69.00;;;;;;4105254;28;20066;-84
2022/08/01 07:00:35;;;;;;;14.98;2.13;;;15.90;68.40;;;;;;4112463;28;20037;-83
2022/08/01 07:02:56;;;;;;;12.27;2.13;;;15.90;68.90;;;;;;4113871;28;20061;-85
2022/08/01 07:05:16;;;;;;;13.57;2.13;;;15.90;68.00;;;;;;4112680;28;20119;-86
2022/08/01 07:07:35;;;;;;;13.52;2.33;;;15.90;67.80;;;;;;4119040;28;20050;-85
2022/08/01 07:09:54;;;;;;;21.88;2.50;;;15.90;67.60;;;;;;4107659;28;20051;-85
2022/08/01 07:12:13;;;;;;;16.25;2.28;;;15.90;67.20;;;;;;4114167;28;20025;-85
2022/08/01 07:14:33;;;;;;;13.55;2.00;;;16.00;67.10;;;;;;4098830;28;20038;-86
2022/08/01 07:16:52;;;;;;;14.70;2.45;;;16.00;67.10;;;;;;4112811;28;20041;-85
2022/08/01 07:19:12;;;;;;;12.50;1.80;;;16.10;67.30;;;;;;4120341;28;20476;-84
2022/08/01 07:21:31;;;;;;;20.02;2.67;;;16.10;67.40;;;;;;4113208;28;20050;-84
2022/08/01 07:23:50;;;;;;;13.07;2.03;;;16.20;67.40;;;;;;4113109;28;20070;-84
2022/08/01 07:26:09;;;;;;;18.35;2.60;;;16.20;66.00;;;;;;4114857;28;20034;-85
2022/08/01 07:28:29;;;;;;;12.45;2.10;;;16.20;65.20;;;;;;4111512;28;20160;-85
2022/08/01 07:30:48;;;;;;;10.82;1.85;;;16.30;64.80;;;;;;4116708;28;20042;-85
2022/08/01 07:33:08;;;;;;;14.02;2.08;;;16.30;64.50;;;;;;4116729;28;20033;-84
2022/08/01 07:35:27;;;;;;;9.95;2.00;;;16.30;64.70;;;;;;4111411;28;20038;-84
2022/08/01 07:37:47;;;;;;;17.45;2.47;;;16.30;65.10;;;;;;4116118;28;20038;-84
2022/08/01 07:40:07;;;;;;;15.77;2.20;;;16.40;65.00;;;;;;4117899;28;20085;-84
2022/08/01 07:42:28;;;;;;;21.67;1.95;;;16.40;64.20;;;;;;4115352;28;20143;-85
2022/08/01 07:44:47;;;;;;;11.75;1.90;;;16.40;64.10;;;;;;4111897;28;20086;-85
2022/08/01 07:47:06;;;;;;;10.57;2.03;;;16.40;63.80;;;;;;4116820;28;20029;-84
2022/08/01 07:49:25;;;;;;;17.50;2.65;;;16.50;63.80;;;;;;4106669;28;20034;-85
2022/08/01 07:51:44;;;;;;;15.45;1.90;;;16.50;63.10;;;;;;4111698;28;20071;-85
2022/08/01 07:54:04;;;;;;;16.38;2.15;;;16.50;62.60;;;;;;4119935;28;20053;-85
2022/08/01 07:56:25;;;;;;;20.80;2.72;;;16.50;62.60;;;;;;4113715;28;20038;-84
2022/08/01 07:58:48;;;;;;;10.02;1.65;;;16.50;62.50;;;;;;4106954;28;20075;-85
2022/08/01 08:01:10;;;;;;;9.98;1.55;;;16.60;62.50;;;;;;4114414;28;20472;-85
2022/08/01 08:03:29;;;;;;;13.48;2.00;;;16.60;62.10;;;;;;4105380;28;20080;-85
2022/08/01 08:05:48;;;;;;;9.98;1.50;;;16.60;62.00;;;;;;4112171;28;20080;-85
2022/08/01 08:08:10;;;;;;;12.68;1.90;;;16.60;61.50;;;;;;4102106;28;20115;-85
2022/08/01 08:10:29;;;;;;;13.00;1.90;;;16.70;61.20;;;;;;4104047;28;20046;-85
2022/08/01 08:12:49;;;;;;;16.88;2.00;;;16.80;60.60;;;;;;4112833;28;20065;-85
2022/08/01 08:15:09;;;;;;;16.42;2.33;;;16.80;60.00;;;;;;4097841;28;20115;-85
2022/08/01 08:17:28;;;;;;;9.23;1.35;;;16.80;59.60;;;;;;4112353;28;20614;-86
2022/08/01 08:19:47;;;;;;;24.35;2.30;;;16.80;59.70;;;;;;4104475;28;20038;-85
2022/08/01 08:22:08;;;;;;;9.38;1.50;;;16.90;59.70;;;;;;4109819;28;20166;-84
2022/08/01 08:24:27;;;;;;;12.43;2.10;;;16.90;60.10;;;;;;4113145;28;20042;-85
2022/08/01 08:26:52;;;;;;;7.57;1.45;;;17.00;59.40;;;;;;4115485;28;20054;-84
2022/08/01 08:29:12;;;;;;;14.40;1.60;;;17.00;59.30;;;;;;4109722;28;20037;-84
2022/08/01 08:31:31;;;;;;;13.52;1.63;;;17.10;59.10;;;;;;4113783;28;20054;-85
2022/08/01 08:33:50;;;;;;;9.13;1.20;;;17.10;58.80;;;;;;4110913;28;20034;-85
2022/08/01 08:36:11;;;;;;;11.00;1.50;;;17.20;58.50;;;;;;4115625;28;20545;-85
2022/08/01 08:38:30;;;;;;;8.98;1.38;;;17.20;58.20;;;;;;4114844;28;20050;-86
2022/08/01 08:40:49;;;;;;;9.88;1.80;;;17.30;58.00;;;;;;4103338;28;20618;-84
2022/08/01 08:43:10;;;;;;;7.45;1.48;;;17.30;57.90;;;;;;4097899;28;20082;-85
2022/08/01 08:45:29;;;;;;;10.15;1.20;;;17.40;58.20;;;;;;4112997;28;20038;-85
2022/08/01 08:47:49;;;;;;;10.38;1.67;;;17.40;58.40;;;;;;4113121;28;20057;-85
2022/08/01 08:50:10;;;;;;;7.68;1.67;;;17.50;57.50;;;;;;4095746;28;20050;-85
2022/08/01 08:52:30;;;;;;;16.60;1.42;;;17.50;57.10;;;;;;4113037;28;20038;-84
2022/08/01 08:54:52;;;;;;;7.80;1.42;;;17.60;57.00;;;;;;4111594;28;20441;-87
2022/08/01 08:57:14;;;;;;;11.85;1.70;;;17.60;57.00;;;;;;4112868;28;20166;-84
2022/08/01 08:59:33;;;;;;;6.72;1.27;;;17.60;56.30;;;;;;4098479;28;20050;-85
2022/08/01 09:01:52;;;;;;;14.80;1.88;;;17.70;56.40;;;;;;4099961;28;20539;-86
2022/08/01 09:04:12;;;;;;;6.60;1.40;;;17.70;55.70;;;;;;4116076;28;20045;-85
2022/08/01 09:06:32;;;;;;;7.43;1.23;;;17.70;55.90;;;;;;4114752;28;20034;-85
2022/08/01 09:08:55;;;;;;;11.85;1.50;;;17.80;55.70;;;;;;4106265;28;20049;-85
2022/08/01 09:11:14;;;;;;;21.13;1.45;;;17.90;55.80;;;;;;4112188;28;20042;-84
2022/08/01 09:13:33;;;;;;;8.63;1.45;;;17.90;55.60;;;;;;4097638;28;20042;-85
2022/08/01 09:15:59;;;;;;;7.40;1.38;;;17.90;55.20;;;;;;4112619;28;20066;-85
2022/08/01 09:18:44;;;;;;;10.50;1.60;;;17.90;54.40;;;;;;4111112;28;20521;-85
2022/08/01 09:21:14;;;;;;;13.07;1.67;;;18.00;54.20;;;;;;4110628;28;20062;-84
2022/08/01 09:23:38;;;;;;;5.40;1.35;;;18.00;55.00;;;;;;4108262;28;20046;-86
2022/08/01 09:25:57;;;;;;;;;;;18.10;55.00;;;;;;4116026;28;20156;-86
2022/08/01 09:28:17;;;;;;;7.22;1.33;;;18.10;54.80;;;;;;4113906;28;19916;-84
2022/08/01 09:30:39;;;;;;;3.83;1.15;;;18.20;54.80;;;;;;4117778;28;20710;-85
2022/08/01 09:33:01;;;;;;;8.40;1.50;;;18.20;54.20;;;;;;4130215;28;20089;-84
2022/08/01 09:35:27;;;;;;;8.02;1.50;;;18.30;53.70;;;;;;4119430;28;20037;-84
2022/08/01 09:37:46;;;;;;;9.75;1.83;;;18.30;52.80;;;;;;4117773;28;20058;-87
2022/08/01 09:40:07;;;;;;;7.82;1.25;;;18.30;53.40;;;;;;4114268;28;20085;-86
2022/08/01 09:42:27;;;;;;;5.57;1.30;;;18.40;52.80;;;;;;4103675;28;20584;-85
2022/08/01 09:44:46;;;;;;;6.07;1.30;;;18.40;51.70;;;;;;4114394;28;20047;-84
2022/08/01 09:47:06;;;;;;;10.30;1.98;;;18.40;51.60;;;;;;4100002;28;20082;-85
2022/08/01 09:49:31;;;;;;;6.22;1.23;;;18.50;52.00;;;;;;4114447;28;20521;-87
2022/08/01 09:51:51;;;;;;;11.80;1.58;;;18.50;51.10;;;;;;4095734;28;20690;-84
2022/08/01 09:54:10;;;;;;;9.68;1.95;;;18.50;51.20;;;;;;4098638;28;20055;-84
2022/08/01 09:56:40;;;;;;;8.82;1.75;;;18.50;51.30;;;;;;4101879;28;20434;-83
2022/08/01 09:58:59;;;;;;;8.98;1.52;;;18.60;50.80;;;;;;4118875;28;20175;-84
2022/08/01 10:01:21;;;;;;;9.57;1.48;;;18.50;50.80;;;;;;4120266;28;20430;-84
2022/08/01 10:03:40;;;;;;;7.90;1.20;;;18.60;51.30;;;;;;4104246;28;20042;-85
2022/08/01 10:06:00;;;;;;;13.10;1.60;;;18.60;50.30;;;;;;4106880;28;20427;-86
2022/08/01 10:08:23;;;;;;;6.32;1.52;;;18.60;50.70;;;;;;4108460;28;20565;-83
2022/08/01 10:11:03;;;;;;;7.95;1.50;;;18.70;50.00;;;;;;4105486;28;20472;-86
2022/08/01 10:13:22;;;;;;;5.60;1.10;;;18.70;50.00;;;;;;4119855;28;20042;-85
2022/08/01 10:15:42;;;;;;;10.15;1.45;;;18.70;50.10;;;;;;4109261;28;20067;-85
2022/08/01 10:18:04;;;;;;;13.73;1.90;;;18.80;50.50;;;;;;4122521;28;20038;-83
2022/08/01 10:20:28;;;;;;;12.20;1.73;;;18.80;50.40;;;;;;4116936;28;20053;-86
2022/08/01 10:22:51;;;;;;;7.57;1.48;;;18.80;50.00;;;;;;4115871;28;20046;-85
2022/08/01 10:25:12;;;;;;;7.13;1.20;;;18.80;50.30;;;;;;4122393;28;20093;-84
2022/08/01 10:27:36;;;;;;;10.93;1.48;;;18.90;50.80;;;;;;4116013;28;20073;-84
2022/08/01 10:30:03;;;;;;;8.23;1.35;;;18.90;50.50;;;;;;4115644;28;20054;-85
2022/08/01 10:32:23;;;;;;;5.72;1.40;;;18.90;50.60;;;;;;4102898;28;20077;-85
2022/08/01 10:34:43;;;;;;;7.78;1.48;;;19.00;51.10;;;;;;4124106;28;20081;-85
2022/08/01 10:37:04;;;;;;;9.80;1.58;;;19.10;51.20;;;;;;4111193;28;20037;-83
2022/08/01 10:39:24;;;;;;;11.98;1.10;;;19.10;50.80;;;;;;4102871;28;20055;-84
2022/08/01 10:41:45;;;;;;;8.07;1.17;;;19.20;49.60;;;;;;4113741;28;20069;-84
2022/08/01 10:44:08;;;;;;;11.00;1.90;;;19.20;49.50;;;;;;4111103;28;20062;-84
2022/08/01 10:46:30;;;;;;;5.35;1.35;;;19.30;48.90;;;;;;4111952;28;20079;-86
2022/08/01 10:48:44;;;;;;;12.65;1.98;;;19.30;48.50;;;;;;4112475;28;20490;-86
2022/08/01 10:50:48;;;;;;;6.57;1.33;;;19.40;48.20;;;;;;4103524;28;20562;-83
2022/08/01 10:53:22;;;;;;;12.85;1.65;;;19.40;48.80;;;;;;4101369;28;20511;-85
2022/08/01 10:55:24;;;;;;;7.65;1.48;;;19.50;48.70;;;;;;4113430;28;20576;-84
2022/08/01 10:57:25;;;;;;;10.35;1.50;;;19.50;48.10;;;;;;4116623;28;20026;-86
2022/08/01 10:59:27;;;;;;;11.10;1.92;;;19.50;48.20;;;;;;4115082;28;20054;-87
2022/08/01 11:01:32;;;;;;;7.55;1.52;;;19.60;48.30;;;;;;4096334;28;20058;-86
2022/08/01 11:03:35;;;;;;;9.05;1.35;;;19.60;47.50;;;;;;4115953;28;20050;-88
2022/08/01 11:05:36;;;;;;;7.03;1.52;;;19.60;47.00;;;;;;4112832;28;20157;-84
2022/08/01 11:07:40;;;;;;;8.60;1.52;;;19.70;46.90;;;;;;4104283;28;20039;-83
2022/08/01 11:09:43;;;;;;;9.18;1.33;;;19.60;47.20;;;;;;4112606;28;20050;-83
2022/08/01 11:12:09;;;;;;;;;;;19.70;47.00;;;;;;4102759;28;20034;-85
2022/08/01 11:14:13;;;;;;;5.28;1.15;;;19.70;47.40;;;;;;4111316;28;19965;-84
2022/08/01 11:16:35;;;;;;;5.43;1.30;;;19.80;46.50;;;;;;4103390;28;20054;-85
2022/08/01 11:18:57;;;;;;;7.70;1.50;;;19.80;46.70;;;;;;4114799;28;20027;-84
2022/08/01 11:21:05;;;;;;;5.57;1.42;;;19.80;46.60;;;;;;4113234;28;20038;-84
2022/08/01 11:23:06;;;;;;;5.35;1.30;;;19.80;47.00;;;;;;4118750;28;20166;-86
2022/08/01 11:25:07;;;;;;;9.32;1.42;;;19.80;47.00;;;;;;4115560;28;20786;-84
2022/08/01 11:27:22;;;;;;;5.55;1.27;;;19.90;47.00;;;;;;4113559;28;20023;-85
2022/08/01 11:29:43;;;;;;;9.95;1.70;;;19.90;46.60;;;;;;4115372;28;20039;-85
2022/08/01 11:31:50;;;;;;;10.82;1.70;;;19.90;47.00;;;;;;4094502;28;20032;-84
2022/08/01 11:34:13;;;;;;;7.55;1.17;;;19.90;46.40;;;;;;4111428;28;20073;-82
2022/08/01 11:36:55;;;;;;;8.57;1.45;;;20.00;46.80;;;;;;4113499;28;20034;-83
2022/08/01 11:39:22;;;;;;;9.90;1.60;;;20.00;46.80;;;;;;4112021;28;20023;-84
2022/08/01 11:41:48;;;;;;;7.70;1.45;;;20.00;46.40;;;;;;4113534;28;20065;-84
2022/08/01 11:44:33;;;;;;;6.25;1.52;;;20.10;45.80;;;;;;4101101;28;20098;-86
2022/08/01 11:47:11;;;;;;;9.65;1.88;;;20.10;46.00;;;;;;4097649;28;20062;-83
2022/08/01 11:49:36;;;;;;;8.20;1.60;;;20.10;46.10;;;;;;4098340;28;20054;-84
2022/08/01 11:52:29;;;;;;;8.07;1.90;;;20.20;46.60;;;;;;4097771;28;20110;-85
2022/08/01 11:55:04;;;;;;;8.23;1.45;;;20.10;45.70;;;;;;4093619;28;20039;-83
2022/08/01 11:57:36;;;;;;;8.45;1.77;;;20.20;46.20;;;;;;4092467;28;20035;-85
2022/08/01 11:59:59;;;;;;;9.85;1.83;;;20.30;46.40;;;;;;4098539;28;20051;-84